sensor_id;sensor_type;location;lat;lon;timestamp;temperature;humidity
6293;DHT22;3179;54.350;10.102;2023-09-07T00:02:24;20.90;99.90
6293;DHT22;3179;54.350;10.102;2023-09-07T00:04:51;20.90;99.90
6293;DHT22;3179;54.350;10.102;2023-09-07T00:07:19;20.90;99.90
6293;DHT22;3179;54.350;10.102;2023-09-07T00:09:45;20.90;99.90
6293;DHT22;3179;54.350;10.102;2023-09-07T00:12:12;20.90;99.90
6293;DHT22;3179;54.350;10.102;2023-09-07T00:14:39;20.90;99.90
6293;DHT22;3179;54.350;10.102;2023-09-07T00:17:06;20.80;99.90
6293;DHT22;3179;54.350;10.102;2023-09-07T00:19:33;20.80;99.90
6293;DHT22;3179;54.350;10.102;2023-09-07T00:22:02;20.80;99.90
6293;DHT22;3179;54.350;10.102;2023-09-07T00:24:31;20.80;99.90
6293;DHT22;3179;54.350;10.102;2023-09-07T00:26:58;20.80;99.90
6293;DHT22;3179;54.350;10.102;2023-09-07T00:29:24;20.70;99.90
6293;DHT22;3179;54.350;10.102;2023-09-07T00:31:51;20.70;99.90
6293;DHT22;3179;54.350;10.102;2023-09-07T00:34:18;20.70;99.90
6293;DHT22;3179;54.350;10.102;2023-09-07T00:36:45;20.70;99.90
6293;DHT22;3179;54.350;10.102;2023-09-07T00:39:11;20.70;99.90
6293;DHT22;3179;54.350;10.102;2023-09-07T00:41:39;20.60;99.90
6293;DHT22;3179;54.350;10.102;2023-09-07T00:44:06;20.60;99.90
6293;DHT22;3179;54.350;10.102;2023-09-07T00:46:33;20.60;99.90
6293;DHT22;3179;54.350;10.102;2023-09-07T00:49:00;20.60;99.90
6293;DHT22;3179;54.350;10.102;2023-09-07T00:51:27;20.60;99.90
6293;DHT22;3179;54.350;10.102;2023-09-07T01:00:39;20.50;99.90
6293;DHT22;3179;54.350;10.102;2023-09-07T01:03:07;20.40;99.90
6293;DHT22;3179;54.350;10.102;2023-09-07T01:05:41;20.40;99.90
6293;DHT22;3179;54.350;10.102;2023-09-07T01:08:14;20.40;99.90
6293;DHT22;3179;54.350;10.102;2023-09-07T01:10:42;20.40;99.90
6293;DHT22;3179;54.350;10.102;2023-09-07T01:13:09;20.40;99.90
6293;DHT22;3179;54.350;10.102;2023-09-07T01:15:39;20.40;99.90
6293;DHT22;3179;54.350;10.102;2023-09-07T01:18:06;20.40;99.90
6293;DHT22;3179;54.350;10.102;2023-09-07T01:20:35;20.40;99.90
6293;DHT22;3179;54.350;10.102;2023-09-07T01:23:04;20.30;99.90
6293;DHT22;3179;54.350;10.102;2023-09-07T01:25:31;20.30;99.90
6293;DHT22;3179;54.350;10.102;2023-09-07T01:27:58;20.30;99.90
6293;DHT22;3179;54.350;10.102;2023-09-07T01:30:27;20.20;99.90
6293;DHT22;3179;54.350;10.102;2023-09-07T01:32:53;20.20;99.90
6293;DHT22;3179;54.350;10.102;2023-09-07T01:35:21;20.20;99.90
6293;DHT22;3179;54.350;10.102;2023-09-07T01:37:48;20.20;99.90
6293;DHT22;3179;54.350;10.102;2023-09-07T01:40:16;20.20;99.90
6293;DHT22;3179;54.350;10.102;2023-09-07T01:42:43;20.20;99.90
6293;DHT22;3179;54.350;10.102;2023-09-07T01:45:10;20.20;99.90
6293;DHT22;3179;54.350;10.102;2023-09-07T01:47:37;20.10;99.90
6293;DHT22;3179;54.350;10.102;2023-09-07T01:50:04;20.10;99.90
6293;DHT22;3179;54.350;10.102;2023-09-07T01:52:31;20.10;99.90
6293;DHT22;3179;54.350;10.102;2023-09-07T01:54:58;20.10;99.90
6293;DHT22;3179;54.350;10.102;2023-09-07T01:57:26;20.10;99.90
6293;DHT22;3179;54.350;10.102;2023-09-07T01:59:53;20.10;99.90
6293;DHT22;3179;54.350;10.102;2023-09-07T02:02:19;20.10;99.90
6293;DHT22;3179;54.350;10.102;2023-09-07T02:04:46;20.00;99.90
6293;DHT22;3179;54.350;10.102;2023-09-07T02:07:13;20.00;99.90
6293;DHT22;3179;54.350;10.102;2023-09-07T02:09:41;20.00;99.90
6293;DHT22;3179;54.350;10.102;2023-09-07T02:12:08;20.00;99.90
6293;DHT22;3179;54.350;10.102;2023-09-07T02:14:37;20.00;99.90
6293;DHT22;3179;54.350;10.102;2023-09-07T02:17:04;20.00;99.90
6293;DHT22;3179;54.350;10.102;2023-09-07T02:19:30;19.90;99.90
6293;DHT22;3179;54.350;10.102;2023-09-07T02:21:57;19.90;99.90
6293;DHT22;3179;54.350;10.102;2023-09-07T02:24:24;19.90;99.90
6293;DHT22;3179;54.350;10.102;2023-09-07T02:26:51;19.90;99.90
6293;DHT22;3179;54.350;10.102;2023-09-07T02:29:17;19.90;99.90
6293;DHT22;3179;54.350;10.102;2023-09-07T02:31:46;19.90;99.90
6293;DHT22;3179;54.350;10.102;2023-09-07T02:34:12;19.90;99.90
6293;DHT22;3179;54.350;10.102;2023-09-07T02:36:39;19.80;99.90
6293;DHT22;3179;54.350;10.102;2023-09-07T02:39:06;19.80;99.90
6293;DHT22;3179;54.350;10.102;2023-09-07T02:41:34;19.80;99.90
6293;DHT22;3179;54.350;10.102;2023-09-07T02:44:01;19.80;99.90
6293;DHT22;3179;54.350;10.102;2023-09-07T02:46:28;19.80;99.90
6293;DHT22;3179;54.350;10.102;2023-09-07T02:48:56;19.80;99.90
6293;DHT22;3179;54.350;10.102;2023-09-07T02:51:23;19.80;99.90
6293;DHT22;3179;54.350;10.102;2023-09-07T02:53:50;19.70;99.90
6293;DHT22;3179;54.350;10.102;2023-09-07T02:56:16;19.70;99.90
6293;DHT22;3179;54.350;10.102;2023-09-07T02:58:43;19.70;99.90
6293;DHT22;3179;54.350;10.102;2023-09-07T03:01:11;19.70;99.90
6293;DHT22;3179;54.350;10.102;2023-09-07T03:03:39;19.70;99.90
6293;DHT22;3179;54.350;10.102;2023-09-07T03:06:10;19.60;99.90
6293;DHT22;3179;54.350;10.102;2023-09-07T03:08:37;19.60;99.90
6293;DHT22;3179;54.350;10.102;2023-09-07T03:11:04;19.60;99.90
6293;DHT22;3179;54.350;10.102;2023-09-07T03:13:31;19.60;99.90
6293;DHT22;3179;54.350;10.102;2023-09-07T03:15:58;19.60;99.90
6293;DHT22;3179;54.350;10.102;2023-09-07T03:18:25;19.50;99.90
6293;DHT22;3179;54.350;10.102;2023-09-07T03:20:54;19.50;99.90
6293;DHT22;3179;54.350;10.102;2023-09-07T03:23:22;19.50;99.90
6293;DHT22;3179;54.350;10.102;2023-09-07T03:25:49;19.50;99.90
6293;DHT22;3179;54.350;10.102;2023-09-07T03:28:16;19.50;99.90
6293;DHT22;3179;54.350;10.102;2023-09-07T03:30:43;19.40;99.90
6293;DHT22;3179;54.350;10.102;2023-09-07T03:33:10;19.40;99.90
6293;DHT22;3179;54.350;10.102;2023-09-07T03:35:36;19.40;99.90
6293;DHT22;3179;54.350;10.102;2023-09-07T03:38:04;19.40;99.90
6293;DHT22;3179;54.350;10.102;2023-09-07T03:40:32;19.40;99.90
6293;DHT22;3179;54.350;10.102;2023-09-07T03:42:58;19.30;99.90
6293;DHT22;3179;54.350;10.102;2023-09-07T03:45:25;19.30;99.90
6293;DHT22;3179;54.350;10.102;2023-09-07T03:47:52;19.30;99.90
6293;DHT22;3179;54.350;10.102;2023-09-07T03:50:19;19.30;99.90
6293;DHT22;3179;54.350;10.102;2023-09-07T03:52:46;19.20;99.90
6293;DHT22;3179;54.350;10.102;2023-09-07T03:55:14;19.20;99.90
6293;DHT22;3179;54.350;10.102;2023-09-07T03:57:42;19.20;99.90
6293;DHT22;3179;54.350;10.102;2023-09-07T04:00:10;19.20;99.90
6293;DHT22;3179;54.350;10.102;2023-09-07T04:02:37;19.20;99.90
6293;DHT22;3179;54.350;10.102;2023-09-07T04:05:07;19.20;99.90
6293;DHT22;3179;54.350;10.102;2023-09-07T04:07:33;19.10;99.90
6293;DHT22;3179;54.350;10.102;2023-09-07T04:10:00;19.20;99.90
6293;DHT22;3179;54.350;10.102;2023-09-07T04:12:27;19.10;99.90
6293;DHT22;3179;54.350;10.102;2023-09-07T04:14:55;19.10;99.90
6293;DHT22;3179;54.350;10.102;2023-09-07T04:17:22;19.10;99.90
6293;DHT22;3179;54.350;10.102;2023-09-07T04:19:48;19.10;99.90
6293;DHT22;3179;54.350;10.102;2023-09-07T04:22:15;19.10;99.90
6293;DHT22;3179;54.350;10.102;2023-09-07T04:24:42;19.10;99.90
6293;DHT22;3179;54.350;10.102;2023-09-07T04:27:09;19.10;99.90
6293;DHT22;3179;54.350;10.102;2023-09-07T04:29:35;19.00;99.90
6293;DHT22;3179;54.350;10.102;2023-09-07T04:32:04;19.00;99.90
6293;DHT22;3179;54.350;10.102;2023-09-07T04:34:31;19.00;99.90
6293;DHT22;3179;54.350;10.102;2023-09-07T04:36:58;19.00;99.90
6293;DHT22;3179;54.350;10.102;2023-09-07T04:39:25;19.00;99.90
6293;DHT22;3179;54.350;10.102;2023-09-07T04:41:51;19.00;99.90
6293;DHT22;3179;54.350;10.102;2023-09-07T04:44:18;19.00;99.90
6293;DHT22;3179;54.350;10.102;2023-09-07T04:46:45;19.00;99.90
6293;DHT22;3179;54.350;10.102;2023-09-07T04:49:14;19.00;99.90
6293;DHT22;3179;54.350;10.102;2023-09-07T04:51:40;19.00;99.90
6293;DHT22;3179;54.350;10.102;2023-09-07T04:54:07;19.00;99.90
6293;DHT22;3179;54.350;10.102;2023-09-07T04:56:35;19.00;99.90
6293;DHT22;3179;54.350;10.102;2023-09-07T04:59:01;19.00;99.90
6293;DHT22;3179;54.350;10.102;2023-09-07T05:01:28;19.00;99.90
6293;DHT22;3179;54.350;10.102;2023-09-07T05:03:56;19.00;99.90
6293;DHT22;3179;54.350;10.102;2023-09-07T05:06:24;19.00;99.90
6293;DHT22;3179;54.350;10.102;2023-09-07T05:08:51;19.00;99.90
6293;DHT22;3179;54.350;10.102;2023-09-07T05:11:18;19.00;99.90
6293;DHT22;3179;54.350;10.102;2023-09-07T05:13:45;19.00;99.90
6293;DHT22;3179;54.350;10.102;2023-09-07T05:16:12;19.00;99.90
6293;DHT22;3179;54.350;10.102;2023-09-07T05:18:40;19.00;99.90
6293;DHT22;3179;54.350;10.102;2023-09-07T05:21:13;19.00;99.90
6293;DHT22;3179;54.350;10.102;2023-09-07T05:23:41;19.00;99.90
6293;DHT22;3179;54.350;10.102;2023-09-07T05:26:08;19.00;99.90
6293;DHT22;3179;54.350;10.102;2023-09-07T05:28:35;19.00;99.90
6293;DHT22;3179;54.350;10.102;2023-09-07T05:31:02;19.00;99.90
6293;DHT22;3179;54.350;10.102;2023-09-07T05:33:29;19.00;99.90
6293;DHT22;3179;54.350;10.102;2023-09-07T05:35:56;19.10;99.90
6293;DHT22;3179;54.350;10.102;2023-09-07T05:38:22;19.10;99.90
6293;DHT22;3179;54.350;10.102;2023-09-07T05:40:52;19.10;99.90
6293;DHT22;3179;54.350;10.102;2023-09-07T05:43:19;19.20;99.90
6293;DHT22;3179;54.350;10.102;2023-09-07T05:45:46;19.20;99.90
6293;DHT22;3179;54.350;10.102;2023-09-07T05:48:14;19.20;99.90
6293;DHT22;3179;54.350;10.102;2023-09-07T05:50:42;19.30;99.90
6293;DHT22;3179;54.350;10.102;2023-09-07T05:53:09;19.30;99.90
6293;DHT22;3179;54.350;10.102;2023-09-07T05:55:36;19.30;99.90
6293;DHT22;3179;54.350;10.102;2023-09-07T05:58:06;19.30;99.90
6293;DHT22;3179;54.350;10.102;2023-09-07T06:00:34;19.30;99.90
6293;DHT22;3179;54.350;10.102;2023-09-07T06:03:01;19.30;99.90
6293;DHT22;3179;54.350;10.102;2023-09-07T06:05:28;19.30;99.90
6293;DHT22;3179;54.350;10.102;2023-09-07T06:07:55;19.40;99.90
6293;DHT22;3179;54.350;10.102;2023-09-07T06:10:22;19.40;99.90
6293;DHT22;3179;54.350;10.102;2023-09-07T06:12:49;19.40;99.90
6293;DHT22;3179;54.350;10.102;2023-09-07T06:15:17;19.40;99.90
6293;DHT22;3179;54.350;10.102;2023-09-07T06:17:44;19.50;99.90
6293;DHT22;3179;54.350;10.102;2023-09-07T06:20:12;19.50;99.90
6293;DHT22;3179;54.350;10.102;2023-09-07T06:22:38;19.50;99.90
6293;DHT22;3179;54.350;10.102;2023-09-07T06:25:06;19.50;99.90
6293;DHT22;3179;54.350;10.102;2023-09-07T06:27:32;19.50;99.90
6293;DHT22;3179;54.350;10.102;2023-09-07T06:29:59;19.50;99.90
6293;DHT22;3179;54.350;10.102;2023-09-07T06:32:27;19.50;99.90
6293;DHT22;3179;54.350;10.102;2023-09-07T06:34:54;19.60;99.90
6293;DHT22;3179;54.350;10.102;2023-09-07T06:37:21;19.60;99.90
6293;DHT22;3179;54.350;10.102;2023-09-07T06:39:49;19.60;99.90
6293;DHT22;3179;54.350;10.102;2023-09-07T06:42:16;19.60;99.90
6293;DHT22;3179;54.350;10.102;2023-09-07T06:44:43;19.60;99.90
6293;DHT22;3179;54.350;10.102;2023-09-07T06:47:10;19.60;99.90
6293;DHT22;3179;54.350;10.102;2023-09-07T06:49:39;19.60;99.90
6293;DHT22;3179;54.350;10.102;2023-09-07T06:52:05;19.60;99.90
6293;DHT22;3179;54.350;10.102;2023-09-07T06:54:32;19.70;99.90
6293;DHT22;3179;54.350;10.102;2023-09-07T06:56:59;19.70;99.90
6293;DHT22;3179;54.350;10.102;2023-09-07T06:59:26;19.70;99.90
6293;DHT22;3179;54.350;10.102;2023-09-07T07:01:52;19.80;99.90
6293;DHT22;3179;54.350;10.102;2023-09-07T07:04:19;19.80;99.90
6293;DHT22;3179;54.350;10.102;2023-09-07T07:06:47;19.80;99.90
6293;DHT22;3179;54.350;10.102;2023-09-07T07:09:14;19.90;99.90
6293;DHT22;3179;54.350;10.102;2023-09-07T07:11:41;19.90;99.90
6293;DHT22;3179;54.350;10.102;2023-09-07T07:14:08;20.00;99.90
6293;DHT22;3179;54.350;10.102;2023-09-07T07:16:36;20.00;99.90
6293;DHT22;3179;54.350;10.102;2023-09-07T07:19:03;20.10;99.90
6293;DHT22;3179;54.350;10.102;2023-09-07T07:21:30;20.10;99.90
6293;DHT22;3179;54.350;10.102;2023-09-07T07:23:58;20.20;99.90
6293;DHT22;3179;54.350;10.102;2023-09-07T07:26:25;20.20;99.90
6293;DHT22;3179;54.350;10.102;2023-09-07T07:28:52;20.20;99.90
6293;DHT22;3179;54.350;10.102;2023-09-07T07:31:18;20.30;99.90
6293;DHT22;3179;54.350;10.102;2023-09-07T07:33:46;20.30;99.90
6293;DHT22;3179;54.350;10.102;2023-09-07T07:36:13;20.30;99.90
6293;DHT22;3179;54.350;10.102;2023-09-07T07:38:40;20.30;99.90
6293;DHT22;3179;54.350;10.102;2023-09-07T07:41:08;20.40;99.90
6293;DHT22;3179;54.350;10.102;2023-09-07T07:43:35;20.40;99.90
6293;DHT22;3179;54.350;10.102;2023-09-07T07:46:02;20.50;99.90
6293;DHT22;3179;54.350;10.102;2023-09-07T07:48:28;20.60;99.90
6293;DHT22;3179;54.350;10.102;2023-09-07T07:50:55;20.60;99.90
6293;DHT22;3179;54.350;10.102;2023-09-07T07:53:22;20.70;99.90
6293;DHT22;3179;54.350;10.102;2023-09-07T07:55:49;20.80;99.90
6293;DHT22;3179;54.350;10.102;2023-09-07T07:58:17;20.90;99.90
6293;DHT22;3179;54.350;10.102;2023-09-07T08:00:44;21.00;99.90
6293;DHT22;3179;54.350;10.102;2023-09-07T08:03:13;21.00;99.90
6293;DHT22;3179;54.350;10.102;2023-09-07T08:05:40;21.10;99.90
6293;DHT22;3179;54.350;10.102;2023-09-07T08:08:07;21.20;99.90
6293;DHT22;3179;54.350;10.102;2023-09-07T08:10:34;21.30;99.90
6293;DHT22;3179;54.350;10.102;2023-09-07T08:13:03;21.30;99.90
6293;DHT22;3179;54.350;10.102;2023-09-07T08:15:32;21.40;99.90
6293;DHT22;3179;54.350;10.102;2023-09-07T08:17:59;21.40;99.90
6293;DHT22;3179;54.350;10.102;2023-09-07T08:20:26;21.50;99.90
6293;DHT22;3179;54.350;10.102;2023-09-07T08:22:55;21.50;99.90
6293;DHT22;3179;54.350;10.102;2023-09-07T08:25:23;21.60;99.90
6293;DHT22;3179;54.350;10.102;2023-09-07T08:27:51;21.60;99.90
6293;DHT22;3179;54.350;10.102;2023-09-07T08:30:21;21.70;99.90
6293;DHT22;3179;54.350;10.102;2023-09-07T08:32:51;21.70;99.90
6293;DHT22;3179;54.350;10.102;2023-09-07T08:35:18;21.80;99.90
6293;DHT22;3179;54.350;10.102;2023-09-07T08:37:45;21.80;99.90
6293;DHT22;3179;54.350;10.102;2023-09-07T08:40:12;21.90;99.90
6293;DHT22;3179;54.350;10.102;2023-09-07T08:42:42;21.90;99.90
6293;DHT22;3179;54.350;10.102;2023-09-07T08:45:11;22.00;99.90
6293;DHT22;3179;54.350;10.102;2023-09-07T08:47:41;22.10;99.90
6293;DHT22;3179;54.350;10.102;2023-09-07T08:50:10;22.10;99.90
6293;DHT22;3179;54.350;10.102;2023-09-07T08:52:37;22.20;99.90
6293;DHT22;3179;54.350;10.102;2023-09-07T08:55:05;22.20;99.90
6293;DHT22;3179;54.350;10.102;2023-09-07T08:57:32;22.30;99.90
6293;DHT22;3179;54.350;10.102;2023-09-07T09:00:00;22.30;99.90
6293;DHT22;3179;54.350;10.102;2023-09-07T09:02:37;22.30;99.90
6293;DHT22;3179;54.350;10.102;2023-09-07T09:05:04;22.40;99.90
6293;DHT22;3179;54.350;10.102;2023-09-07T09:07:33;22.40;99.90
6293;DHT22;3179;54.350;10.102;2023-09-07T09:10:11;22.50;99.90
6293;DHT22;3179;54.350;10.102;2023-09-07T09:12:55;22.60;99.90
6293;DHT22;3179;54.350;10.102;2023-09-07T09:15:25;22.70;99.90
6293;DHT22;3179;54.350;10.102;2023-09-07T09:17:53;22.70;99.90
6293;DHT22;3179;54.350;10.102;2023-09-07T09:20:21;22.80;99.90
6293;DHT22;3179;54.350;10.102;2023-09-07T09:22:50;22.80;99.90
6293;DHT22;3179;54.350;10.102;2023-09-07T09:25:18;22.90;99.90
6293;DHT22;3179;54.350;10.102;2023-09-07T09:27:44;22.90;99.90
6293;DHT22;3179;54.350;10.102;2023-09-07T09:30:12;23.00;99.90
6293;DHT22;3179;54.350;10.102;2023-09-07T09:32:40;23.10;99.90
6293;DHT22;3179;54.350;10.102;2023-09-07T09:35:08;23.20;99.90
6293;DHT22;3179;54.350;10.102;2023-09-07T09:37:43;23.20;99.90
6293;DHT22;3179;54.350;10.102;2023-09-07T09:40:12;23.40;99.90
6293;DHT22;3179;54.350;10.102;2023-09-07T09:42:41;23.40;99.90
6293;DHT22;3179;54.350;10.102;2023-09-07T09:45:09;23.50;99.90
6293;DHT22;3179;54.350;10.102;2023-09-07T09:47:38;23.60;99.90
6293;DHT22;3179;54.350;10.102;2023-09-07T09:50:07;23.70;99.90
6293;DHT22;3179;54.350;10.102;2023-09-07T09:52:34;23.70;99.90
6293;DHT22;3179;54.350;10.102;2023-09-07T09:55:03;23.80;99.90
6293;DHT22;3179;54.350;10.102;2023-09-07T09:57:34;23.80;99.90
6293;DHT22;3179;54.350;10.102;2023-09-07T10:00:02;23.90;99.90
6293;DHT22;3179;54.350;10.102;2023-09-07T10:02:47;24.00;99.90
6293;DHT22;3179;54.350;10.102;2023-09-07T10:05:16;24.10;99.90
6293;DHT22;3179;54.350;10.102;2023-09-07T10:07:44;24.20;99.90
6293;DHT22;3179;54.350;10.102;2023-09-07T10:10:12;24.30;99.90
6293;DHT22;3179;54.350;10.102;2023-09-07T10:12:45;24.30;99.90
6293;DHT22;3179;54.350;10.102;2023-09-07T10:15:22;24.40;99.90
6293;DHT22;3179;54.350;10.102;2023-09-07T10:17:49;24.40;99.90
6293;DHT22;3179;54.350;10.102;2023-09-07T10:20:19;24.50;99.90
6293;DHT22;3179;54.350;10.102;2023-09-07T10:22:48;24.60;99.90
6293;DHT22;3179;54.350;10.102;2023-09-07T10:25:19;24.70;99.90
6293;DHT22;3179;54.350;10.102;2023-09-07T10:27:47;24.80;99.90
6293;DHT22;3179;54.350;10.102;2023-09-07T10:30:14;24.80;99.90
6293;DHT22;3179;54.350;10.102;2023-09-07T10:32:45;24.90;99.90
6293;DHT22;3179;54.350;10.102;2023-09-07T10:35:15;25.00;99.90
6293;DHT22;3179;54.350;10.102;2023-09-07T10:37:44;25.00;99.90
6293;DHT22;3179;54.350;10.102;2023-09-07T10:40:12;25.10;99.90
6293;DHT22;3179;54.350;10.102;2023-09-07T10:42:41;25.20;99.90
6293;DHT22;3179;54.350;10.102;2023-09-07T10:45:11;25.30;99.90
6293;DHT22;3179;54.350;10.102;2023-09-07T10:47:40;25.30;99.90
6293;DHT22;3179;54.350;10.102;2023-09-07T10:50:08;25.40;99.90
6293;DHT22;3179;54.350;10.102;2023-09-07T10:52:36;25.50;99.90
6293;DHT22;3179;54.350;10.102;2023-09-07T10:55:03;25.60;99.90
6293;DHT22;3179;54.350;10.102;2023-09-07T10:57:30;25.70;99.90
6293;DHT22;3179;54.350;10.102;2023-09-07T10:59:57;25.80;99.90
6293;DHT22;3179;54.350;10.102;2023-09-07T11:02:25;25.80;99.90
6293;DHT22;3179;54.350;10.102;2023-09-07T11:04:52;26.00;99.90
6293;DHT22;3179;54.350;10.102;2023-09-07T11:07:19;26.10;99.90
6293;DHT22;3179;54.350;10.102;2023-09-07T11:09:46;26.00;99.90
6293;DHT22;3179;54.350;10.102;2023-09-07T11:12:13;26.20;99.90
6293;DHT22;3179;54.350;10.102;2023-09-07T11:14:41;26.20;99.90
6293;DHT22;3179;54.350;10.102;2023-09-07T11:17:08;26.20;99.90
6293;DHT22;3179;54.350;10.102;2023-09-07T11:19:36;26.20;99.90
6293;DHT22;3179;54.350;10.102;2023-09-07T11:22:03;26.30;99.90
6293;DHT22;3179;54.350;10.102;2023-09-07T11:24:30;26.30;99.90
6293;DHT22;3179;54.350;10.102;2023-09-07T11:26:58;26.40;99.90
6293;DHT22;3179;54.350;10.102;2023-09-07T11:29:25;26.40;99.90
6293;DHT22;3179;54.350;10.102;2023-09-07T11:31:52;26.50;99.90
6293;DHT22;3179;54.350;10.102;2023-09-07T11:34:18;26.50;99.90
6293;DHT22;3179;54.350;10.102;2023-09-07T11:36:48;26.60;99.90
6293;DHT22;3179;54.350;10.102;2023-09-07T11:39:14;26.60;99.90
6293;DHT22;3179;54.350;10.102;2023-09-07T11:41:42;26.70;99.90
6293;DHT22;3179;54.350;10.102;2023-09-07T11:44:09;26.70;99.90
6293;DHT22;3179;54.350;10.102;2023-09-07T11:46:36;26.70;99.90
6293;DHT22;3179;54.350;10.102;2023-09-07T11:49:03;26.70;99.90
6293;DHT22;3179;54.350;10.102;2023-09-07T11:51:31;26.70;99.90
6293;DHT22;3179;54.350;10.102;2023-09-07T11:53:59;26.80;99.90
6293;DHT22;3179;54.350;10.102;2023-09-07T11:56:26;26.80;99.90
6293;DHT22;3179;54.350;10.102;2023-09-07T11:58:53;26.90;99.90
6293;DHT22;3179;54.350;10.102;2023-09-07T12:01:20;26.90;99.90
6293;DHT22;3179;54.350;10.102;2023-09-07T12:03:47;26.90;99.90
6293;DHT22;3179;54.350;10.102;2023-09-07T12:06:14;26.90;99.90
6293;DHT22;3179;54.350;10.102;2023-09-07T12:08:42;27.00;99.90
6293;DHT22;3179;54.350;10.102;2023-09-07T12:11:10;27.00;99.90
6293;DHT22;3179;54.350;10.102;2023-09-07T12:13:37;27.00;99.90
6293;DHT22;3179;54.350;10.102;2023-09-07T12:16:04;27.00;99.90
6293;DHT22;3179;54.350;10.102;2023-09-07T12:18:30;27.10;99.90
6293;DHT22;3179;54.350;10.102;2023-09-07T12:20:57;27.20;99.90
6293;DHT22;3179;54.350;10.102;2023-09-07T12:23:24;27.30;99.90
6293;DHT22;3179;54.350;10.102;2023-09-07T12:25:51;27.30;99.90
6293;DHT22;3179;54.350;10.102;2023-09-07T12:28:19;27.30;99.90
6293;DHT22;3179;54.350;10.102;2023-09-07T12:30:46;27.30;99.90
6293;DHT22;3179;54.350;10.102;2023-09-07T12:33:14;27.30;99.90
6293;DHT22;3179;54.350;10.102;2023-09-07T12:35:41;27.30;99.90
6293;DHT22;3179;54.350;10.102;2023-09-07T12:38:07;27.40;99.90
6293;DHT22;3179;54.350;10.102;2023-09-07T12:40:36;27.40;99.90
6293;DHT22;3179;54.350;10.102;2023-09-07T12:43:03;27.50;99.90
6293;DHT22;3179;54.350;10.102;2023-09-07T12:45:31;27.50;99.90
6293;DHT22;3179;54.350;10.102;2023-09-07T12:47:58;27.50;99.90
6293;DHT22;3179;54.350;10.102;2023-09-07T12:50:26;27.50;99.90
6293;DHT22;3179;54.350;10.102;2023-09-07T12:52:53;27.60;99.90
6293;DHT22;3179;54.350;10.102;2023-09-07T12:55:20;27.60;99.90
6293;DHT22;3179;54.350;10.102;2023-09-07T12:57:47;27.60;99.90
6293;DHT22;3179;54.350;10.102;2023-09-07T13:00:14;27.60;99.90
6293;DHT22;3179;54.350;10.102;2023-09-07T13:02:42;27.70;99.90
6293;DHT22;3179;54.350;10.102;2023-09-07T13:05:09;27.70;99.90
6293;DHT22;3179;54.350;10.102;2023-09-07T13:07:36;27.70;99.90
6293;DHT22;3179;54.350;10.102;2023-09-07T13:10:04;27.80;99.90
6293;DHT22;3179;54.350;10.102;2023-09-07T13:12:31;27.80;99.90
6293;DHT22;3179;54.350;10.102;2023-09-07T13:14:58;27.80;99.90
6293;DHT22;3179;54.350;10.102;2023-09-07T13:17:25;27.80;99.90
6293;DHT22;3179;54.350;10.102;2023-09-07T13:19:53;27.70;99.90
6293;DHT22;3179;54.350;10.102;2023-09-07T13:22:20;27.70;99.90
6293;DHT22;3179;54.350;10.102;2023-09-07T13:24:47;27.80;99.90
6293;DHT22;3179;54.350;10.102;2023-09-07T13:27:17;27.70;99.90
6293;DHT22;3179;54.350;10.102;2023-09-07T13:29:44;27.70;99.90
6293;DHT22;3179;54.350;10.102;2023-09-07T13:32:10;27.70;99.90
6293;DHT22;3179;54.350;10.102;2023-09-07T13:34:39;27.60;99.90
6293;DHT22;3179;54.350;10.102;2023-09-07T13:37:07;27.60;99.90
6293;DHT22;3179;54.350;10.102;2023-09-07T13:39:34;27.50;99.90
6293;DHT22;3179;54.350;10.102;2023-09-07T13:42:01;27.50;99.90
6293;DHT22;3179;54.350;10.102;2023-09-07T13:44:27;27.50;99.90
6293;DHT22;3179;54.350;10.102;2023-09-07T13:46:54;27.50;99.90
6293;DHT22;3179;54.350;10.102;2023-09-07T13:49:21;27.50;99.90
6293;DHT22;3179;54.350;10.102;2023-09-07T13:51:48;27.60;99.90
6293;DHT22;3179;54.350;10.102;2023-09-07T13:54:16;27.60;99.90
6293;DHT22;3179;54.350;10.102;2023-09-07T13:56:43;27.60;99.90
6293;DHT22;3179;54.350;10.102;2023-09-07T13:59:10;27.60;99.90
6293;DHT22;3179;54.350;10.102;2023-09-07T14:01:37;27.60;99.90
6293;DHT22;3179;54.350;10.102;2023-09-07T14:04:04;27.60;99.90
6293;DHT22;3179;54.350;10.102;2023-09-07T14:06:31;27.60;99.90
6293;DHT22;3179;54.350;10.102;2023-09-07T14:08:58;27.60;99.90
6293;DHT22;3179;54.350;10.102;2023-09-07T14:11:26;27.70;99.90
6293;DHT22;3179;54.350;10.102;2023-09-07T14:13:53;27.70;99.90
6293;DHT22;3179;54.350;10.102;2023-09-07T14:16:20;27.70;99.90
6293;DHT22;3179;54.350;10.102;2023-09-07T14:18:47;27.70;99.90
6293;DHT22;3179;54.350;10.102;2023-09-07T14:21:15;27.60;99.90
6293;DHT22;3179;54.350;10.102;2023-09-07T14:23:42;27.70;99.90
6293;DHT22;3179;54.350;10.102;2023-09-07T14:26:09;27.70;99.90
6293;DHT22;3179;54.350;10.102;2023-09-07T14:28:37;27.70;99.90
6293;DHT22;3179;54.350;10.102;2023-09-07T14:31:04;27.60;99.90
6293;DHT22;3179;54.350;10.102;2023-09-07T14:33:32;27.70;99.90
6293;DHT22;3179;54.350;10.102;2023-09-07T14:35:59;27.70;99.90
6293;DHT22;3179;54.350;10.102;2023-09-07T14:38:26;27.60;99.90
6293;DHT22;3179;54.350;10.102;2023-09-07T14:40:54;27.60;99.90
6293;DHT22;3179;54.350;10.102;2023-09-07T14:43:21;27.60;99.90
6293;DHT22;3179;54.350;10.102;2023-09-07T14:45:49;27.60;99.90
6293;DHT22;3179;54.350;10.102;2023-09-07T14:48:16;27.60;99.90
6293;DHT22;3179;54.350;10.102;2023-09-07T14:50:43;27.60;99.90
6293;DHT22;3179;54.350;10.102;2023-09-07T14:53:10;27.50;99.90
6293;DHT22;3179;54.350;10.102;2023-09-07T14:55:37;27.50;99.90
6293;DHT22;3179;54.350;10.102;2023-09-07T14:58:03;27.50;99.90
6293;DHT22;3179;54.350;10.102;2023-09-07T15:00:34;27.40;99.90
6293;DHT22;3179;54.350;10.102;2023-09-07T15:03:02;27.40;99.90
6293;DHT22;3179;54.350;10.102;2023-09-07T15:05:30;27.40;99.90
6293;DHT22;3179;54.350;10.102;2023-09-07T15:07:56;27.30;99.90
6293;DHT22;3179;54.350;10.102;2023-09-07T15:10:26;27.30;99.90
6293;DHT22;3179;54.350;10.102;2023-09-07T15:12:53;27.20;99.90
6293;DHT22;3179;54.350;10.102;2023-09-07T15:15:20;27.10;99.90
6293;DHT22;3179;54.350;10.102;2023-09-07T15:17:47;27.10;99.90
6293;DHT22;3179;54.350;10.102;2023-09-07T15:20:15;27.00;99.90
6293;DHT22;3179;54.350;10.102;2023-09-07T15:22:42;26.90;99.90
6293;DHT22;3179;54.350;10.102;2023-09-07T15:25:09;26.90;99.90
6293;DHT22;3179;54.350;10.102;2023-09-07T15:27:36;26.80;99.90
6293;DHT22;3179;54.350;10.102;2023-09-07T15:30:03;26.80;99.90
6293;DHT22;3179;54.350;10.102;2023-09-07T15:32:30;26.70;99.90
6293;DHT22;3179;54.350;10.102;2023-09-07T15:34:57;26.60;99.90
6293;DHT22;3179;54.350;10.102;2023-09-07T15:37:25;26.50;99.90
6293;DHT22;3179;54.350;10.102;2023-09-07T15:39:53;26.50;99.90
6293;DHT22;3179;54.350;10.102;2023-09-07T15:42:20;26.50;99.90
6293;DHT22;3179;54.350;10.102;2023-09-07T15:44:47;26.40;99.90
6293;DHT22;3179;54.350;10.102;2023-09-07T15:47:14;26.40;99.90
6293;DHT22;3179;54.350;10.102;2023-09-07T15:49:41;26.40;99.90
6293;DHT22;3179;54.350;10.102;2023-09-07T15:52:09;26.30;99.90
6293;DHT22;3179;54.350;10.102;2023-09-07T15:54:37;26.30;99.90